createdAt,value
2019-02-02T00:01:03.164Z,27.35
2019-02-02T00:03:31.895Z,28.23
2019-02-02T00:06:02.113Z,27.82
2019-02-02T00:08:37.549Z,29.23
2019-02-02T00:11:06.451Z,29.48
2019-02-02T00:13:35.449Z,30.07
2019-02-02T00:16:11.848Z,30.10
2019-02-02T00:18:40.568Z,30.60
2019-02-02T00:21:09.835Z,29.90
2019-02-02T00:23:45.005Z,30.43
2019-02-02T00:26:20.647Z,30.72
2019-02-02T00:28:56.015Z,29.90
2019-02-02T00:31:24.890Z,31.10
2019-02-02T00:34:13.631Z,32.58
2019-02-02T00:36:42.363Z,31.73
2019-02-02T00:39:29.820Z,31.37
2019-02-02T00:42:08.668Z,30.65
2019-02-02T00:44:44.047Z,31.30
2019-02-02T00:47:12.940Z,31.60
2019-02-02T00:49:41.907Z,32.38
2019-02-02T00:52:17.803Z,32.35
2019-02-02T00:54:46.828Z,31.87
2019-02-02T00:57:15.874Z,31.25
2019-02-02T00:59:51.635Z,32.37
2019-02-02T01:02:20.331Z,32.17
2019-02-02T01:04:49.093Z,32.93
2019-02-02T01:07:24.887Z,31.95
2019-02-02T01:09:53.641Z,31.82
2019-02-02T01:12:22.652Z,33.98
2019-02-02T01:14:58.762Z,31.73
2019-02-02T01:17:27.555Z,33.40
2019-02-02T01:19:56.299Z,32.75
2019-02-02T01:22:32.009Z,34.10
2019-02-02T01:25:00.873Z,33.60
2019-02-02T01:27:29.986Z,33.67
2019-02-02T01:30:05.717Z,33.05
2019-02-02T01:32:34.456Z,34.35
2019-02-02T01:35:16.869Z,32.60
2019-02-02T01:37:51.728Z,33.10
2019-02-02T01:40:27.403Z,34.15
2019-02-02T01:43:02.478Z,34.05
2019-02-02T01:45:38.187Z,34.78
2019-02-02T01:48:06.930Z,35.15
2019-02-02T01:50:35.970Z,33.90
2019-02-02T01:53:11.758Z,35.00
2019-02-02T01:55:40.500Z,35.75
2019-02-02T01:58:16.422Z,35.73
2019-02-02T02:00:46.680Z,36.53
2019-02-02T02:03:15.698Z,36.48
2019-02-02T02:05:44.553Z,35.60
2019-02-02T02:08:19.566Z,38.80
2019-02-02T02:10:48.454Z,36.70
2019-02-02T02:13:17.721Z,37.95
2019-02-02T02:15:53.135Z,37.20
2019-02-02T02:18:21.856Z,37.20
2019-02-02T02:20:50.906Z,37.40
2019-02-02T02:23:26.518Z,38.20
2019-02-02T02:25:55.565Z,38.08
2019-02-02T02:28:28.308Z,37.17
2019-02-02T02:31:02.173Z,37.93
2019-02-02T02:33:30.894Z,37.48
2019-02-02T02:36:12.882Z,37.53
2019-02-02T02:38:48.810Z,38.30
2019-02-02T02:41:24.225Z,37.17
2019-02-02T02:43:59.117Z,37.83
2019-02-02T02:46:34.762Z,38.20
2019-02-02T02:49:03.513Z,37.83
2019-02-02T02:51:32.236Z,38.23
2019-02-02T02:54:07.291Z,38.28
2019-02-02T02:56:36.239Z,38.83
2019-02-02T02:59:05.401Z,38.88
2019-02-02T03:01:40.845Z,38.70
2019-02-02T03:04:09.674Z,38.40
2019-02-02T03:06:38.428Z,38.45
2019-02-02T03:09:16.463Z,38.20
2019-02-02T03:11:45.232Z,38.63
2019-02-02T03:14:13.986Z,39.05
2019-02-02T03:16:50.052Z,38.67
2019-02-02T03:19:19.056Z,39.15
2019-02-02T03:21:47.805Z,37.97
2019-02-02T03:24:22.994Z,38.00
2019-02-02T03:26:51.794Z,39.08
2019-02-02T03:29:20.776Z,40.05
2019-02-02T03:31:56.400Z,39.50
2019-02-02T03:34:25.494Z,41.15
2019-02-02T03:37:07.629Z,39.33
2019-02-02T03:39:43.306Z,40.37
2019-02-02T03:42:18.759Z,39.30
2019-02-02T03:44:53.819Z,39.18
2019-02-02T03:47:29.811Z,39.58
2019-02-02T03:49:58.546Z,39.43
2019-02-02T03:52:27.468Z,39.90
2019-02-02T03:55:03.258Z,40.47
2019-02-02T03:57:32.030Z,39.23
2019-02-02T04:00:01.127Z,38.80
2019-02-02T04:02:36.417Z,39.48
2019-02-02T04:05:07.567Z,41.58
2019-02-02T04:07:36.554Z,39.45
2019-02-02T04:10:14.085Z,38.48
2019-02-02T04:12:42.933Z,38.80
2019-02-02T04:15:12.317Z,39.50
2019-02-02T04:17:49.935Z,38.88
2019-02-02T04:20:20.491Z,39.88
2019-02-02T04:22:49.730Z,40.10
2019-02-02T04:39:42.417Z,38.40
2019-02-02T04:42:17.702Z,39.58
2019-02-02T04:44:53.871Z,39.30
2019-02-02T04:47:29.789Z,39.40
2019-02-02T04:50:04.928Z,40.35
2019-02-02T04:52:33.909Z,39.87
2019-02-02T04:55:02.649Z,40.03
2019-02-02T04:57:38.568Z,38.20
2019-02-02T05:00:10.772Z,39.23
2019-02-02T05:02:39.578Z,38.73
2019-02-02T05:05:17.536Z,39.80
2019-02-02T05:07:46.351Z,38.70
2019-02-02T05:10:17.325Z,38.85
2019-02-02T05:12:52.808Z,39.05
2019-02-02T05:15:22.034Z,38.92
2019-02-02T05:17:51.083Z,38.73
2019-02-02T05:20:28.092Z,39.15
2019-02-02T05:22:56.867Z,38.75
2019-02-02T05:25:25.625Z,39.20
2019-02-02T05:28:01.511Z,40.08
2019-02-02T05:30:30.763Z,39.25
2019-02-02T05:32:59.899Z,39.05
2019-02-02T05:35:35.648Z,38.17
2019-02-02T05:38:04.724Z,38.80
2019-02-02T05:40:47.032Z,40.03
2019-02-02T05:43:22.740Z,39.55
2019-02-02T05:45:58.485Z,38.28
2019-02-02T05:48:33.964Z,38.67
2019-02-02T05:51:09.005Z,37.90
2019-02-02T05:53:37.761Z,39.63
2019-02-02T05:56:06.891Z,38.70
2019-02-02T05:58:42.767Z,38.35
2019-02-02T06:01:16.483Z,38.28
2019-02-02T06:03:45.567Z,38.55
2019-02-02T06:06:21.181Z,37.42
2019-02-02T06:08:49.887Z,38.70
2019-02-02T06:11:18.884Z,39.55
2019-02-02T06:13:54.558Z,38.83
2019-02-02T06:16:23.319Z,38.80
2019-02-02T06:18:52.268Z,38.60
2019-02-02T06:21:28.135Z,38.70
2019-02-02T06:23:57.133Z,38.85
2019-02-02T06:26:25.858Z,38.00
2019-02-02T06:29:00.808Z,38.58
2019-02-02T06:31:29.816Z,39.78
2019-02-02T06:33:58.513Z,38.98
2019-02-02T06:36:34.770Z,38.00
2019-02-02T06:39:05.253Z,38.55
2019-02-02T06:41:46.979Z,37.63
2019-02-02T06:44:22.273Z,38.65
2019-02-02T06:46:57.998Z,38.13
2019-02-02T06:49:33.747Z,38.25
2019-02-02T06:52:08.985Z,40.55
2019-02-02T06:54:37.710Z,37.63
2019-02-02T06:57:06.465Z,39.27
2019-02-02T06:59:42.505Z,37.48
2019-02-02T07:02:11.302Z,37.33
2019-02-02T07:04:40.327Z,38.28
2019-02-02T07:07:16.032Z,38.83
2019-02-02T07:09:44.738Z,37.63
2019-02-02T07:12:13.457Z,38.13
2019-02-02T07:14:49.893Z,37.83
2019-02-02T07:17:18.880Z,37.37
2019-02-02T07:19:48.137Z,37.55
2019-02-02T07:22:24.140Z,37.95
2019-02-02T07:24:53.006Z,38.17
2019-02-02T07:27:21.933Z,37.58
2019-02-02T07:29:57.616Z,38.13
2019-02-02T07:32:26.387Z,38.63
2019-02-02T07:34:55.083Z,37.25
2019-02-02T07:37:30.297Z,38.25
2019-02-02T07:39:59.024Z,37.73
2019-02-02T07:42:40.288Z,38.33
2019-02-02T07:45:20.198Z,38.10
2019-02-02T07:47:56.002Z,37.30
2019-02-02T07:50:33.581Z,38.17
2019-02-02T07:53:08.706Z,38.33
2019-02-02T07:55:37.727Z,38.10
2019-02-02T07:58:06.507Z,37.95
2019-02-02T08:00:43.614Z,36.58
2019-02-02T08:03:13.285Z,36.80
2019-02-02T08:05:42.175Z,36.28
2019-02-02T08:08:17.649Z,37.28
2019-02-02T08:10:46.354Z,38.55
2019-02-02T08:13:15.271Z,37.13
2019-02-02T08:15:50.199Z,37.33
2019-02-02T08:18:18.896Z,37.40
2019-02-02T08:20:47.657Z,37.25
2019-02-02T08:23:22.584Z,36.83
2019-02-02T08:25:51.406Z,36.98
2019-02-02T08:28:21.937Z,37.53
2019-02-02T08:30:57.719Z,37.03
2019-02-02T08:33:26.455Z,37.78
2019-02-02T08:35:55.403Z,37.45
2019-02-02T08:38:31.554Z,37.35
2019-02-02T08:41:00.594Z,37.50
2019-02-02T08:43:42.154Z,36.83
2019-02-02T08:46:17.834Z,37.65
2019-02-02T08:48:53.851Z,37.15
2019-02-02T08:51:29.849Z,36.35
2019-02-02T08:54:05.057Z,37.23
2019-02-02T08:56:33.877Z,37.80
2019-02-02T08:59:02.650Z,36.55
2019-02-02T09:01:38.534Z,37.08
2019-02-02T09:04:07.907Z,37.38
2019-02-02T09:06:39.199Z,37.53
2019-02-02T09:09:15.693Z,37.58
2019-02-02T09:11:44.686Z,36.38
2019-02-02T09:14:13.699Z,37.98
2019-02-02T09:16:49.008Z,36.63
2019-02-02T09:19:17.782Z,36.85
2019-02-02T09:21:46.541Z,36.75
2019-02-02T09:24:22.845Z,36.93
2019-02-02T09:26:51.619Z,36.20
2019-02-02T09:29:20.370Z,35.95
2019-02-02T09:31:56.131Z,35.60
2019-02-02T09:34:24.909Z,35.98
2019-02-02T09:36:53.695Z,37.38
2019-02-02T09:39:28.810Z,36.45
2019-02-02T09:41:57.606Z,36.45
2019-02-02T09:44:39.499Z,37.08
2019-02-02T09:47:15.663Z,37.33
2019-02-02T09:49:50.858Z,36.42
2019-02-02T09:52:26.106Z,38.13
2019-02-02T09:55:01.640Z,36.93
2019-02-02T09:57:30.431Z,38.48
2019-02-02T09:59:59.608Z,38.28
2019-02-02T10:02:35.554Z,38.55
2019-02-02T10:05:05.346Z,38.10
2019-02-02T10:07:34.139Z,37.58
2019-02-02T10:10:10.106Z,38.65
2019-02-02T10:12:39.610Z,36.63
2019-02-02T10:15:08.741Z,38.08
2019-02-02T10:17:44.883Z,38.05
2019-02-02T10:20:19.118Z,39.10
2019-02-02T10:22:55.070Z,37.15
2019-02-02T10:25:26.028Z,37.63
2019-02-02T10:27:54.816Z,38.80
2019-02-02T10:30:35.954Z,36.87
2019-02-02T10:33:05.004Z,37.78
2019-02-02T10:35:33.763Z,37.25
2019-02-02T10:38:09.742Z,35.90
2019-02-02T10:44:33.617Z,36.73
2019-02-02T10:47:09.239Z,37.23
2019-02-02T10:49:45.038Z,37.70
2019-02-02T10:52:13.869Z,36.17
2019-02-02T10:54:58.594Z,37.60
2019-02-02T10:57:27.463Z,37.17
2019-02-02T10:59:56.357Z,38.43
2019-02-02T11:02:32.278Z,36.55
2019-02-02T11:05:01.101Z,36.40
2019-02-02T11:07:44.031Z,36.25
2019-02-02T11:10:18.172Z,37.15
2019-02-02T11:12:54.494Z,37.63
2019-02-02T11:15:23.485Z,36.83
2019-02-02T11:17:52.279Z,36.88
2019-02-02T11:20:30.498Z,36.75
2019-02-02T11:22:59.455Z,37.45
2019-02-02T11:25:28.717Z,36.58
2019-02-02T11:28:04.733Z,37.85
2019-02-02T11:30:33.629Z,37.33
2019-02-02T11:33:02.812Z,36.60
2019-02-02T11:35:38.035Z,36.60
2019-02-02T11:38:07.028Z,36.25
2019-02-02T11:40:35.968Z,37.55
2019-02-02T11:43:11.128Z,35.95
2019-02-02T11:45:59.737Z,36.33
2019-02-02T11:48:35.420Z,35.90
2019-02-02T11:51:04.264Z,35.17
2019-02-02T11:53:37.338Z,35.03
2019-02-02T11:56:19.376Z,36.13
2019-02-02T11:58:49.686Z,36.25
2019-02-02T12:01:18.601Z,34.80
2019-02-02T12:03:54.629Z,36.00
2019-02-02T12:06:23.332Z,34.92
2019-02-02T12:08:52.311Z,36.95
2019-02-02T12:11:28.443Z,37.50
2019-02-02T12:13:57.714Z,37.45
2019-02-02T12:16:26.485Z,38.60
2019-02-02T12:19:02.313Z,37.05
2019-02-02T12:21:31.283Z,37.60
2019-02-02T12:24:00.083Z,38.10
2019-02-02T12:26:35.451Z,38.02
2019-02-02T12:29:04.340Z,38.33
2019-02-02T12:31:33.374Z,36.33
2019-02-02T12:34:09.288Z,36.15
2019-02-02T12:36:38.020Z,36.93
2019-02-02T12:39:10.763Z,36.55
2019-02-02T12:41:46.051Z,36.42
2019-02-02T12:44:14.790Z,37.67
2019-02-02T12:46:56.528Z,38.33
2019-02-02T12:49:32.293Z,38.28
2019-02-02T12:52:08.224Z,36.77
2019-02-02T12:54:37.016Z,36.68
2019-02-02T12:57:19.882Z,36.05
2019-02-02T12:59:48.613Z,37.28
2019-02-02T13:02:17.872Z,37.13
2019-02-02T13:04:53.100Z,36.13
2019-02-02T13:07:22.181Z,36.60
2019-02-02T13:09:51.219Z,34.90
2019-02-02T13:12:26.889Z,35.85
2019-02-02T13:14:55.982Z,36.33
2019-02-02T13:17:25.003Z,35.78
2019-02-02T13:20:00.819Z,35.48
2019-02-02T13:22:29.818Z,37.35
2019-02-02T13:24:59.081Z,37.35
2019-02-02T13:27:34.112Z,36.58
2019-02-02T13:30:02.886Z,37.08
2019-02-02T13:32:31.881Z,37.75
2019-02-02T13:35:07.455Z,36.13
2019-02-02T13:37:36.240Z,38.00
2019-02-02T13:40:07.730Z,37.83
2019-02-02T13:42:43.449Z,39.80
2019-02-02T13:45:13.269Z,38.73
2019-02-02T13:47:55.090Z,39.13
2019-02-02T13:50:31.274Z,38.27
2019-02-02T13:53:06.835Z,38.13
2019-02-02T13:55:35.876Z,38.38
2019-02-02T13:58:18.728Z,36.63
2019-02-02T14:00:47.504Z,36.38
2019-02-02T14:03:16.244Z,35.98
2019-02-02T14:05:52.148Z,36.50
2019-02-02T14:08:21.653Z,34.78
2019-02-02T14:10:50.741Z,36.17
2019-02-02T14:13:26.257Z,35.55
2019-02-02T14:15:55.281Z,35.52
2019-02-02T14:18:24.277Z,37.60
2019-02-02T14:20:59.475Z,36.40
2019-02-02T14:23:28.543Z,35.27
2019-02-02T14:25:57.593Z,35.98
2019-02-02T14:28:33.733Z,35.03
2019-02-02T14:31:02.454Z,35.63
2019-02-02T14:33:31.198Z,35.25
2019-02-02T14:36:06.677Z,33.85
2019-02-02T14:38:35.715Z,33.70
2019-02-02T14:41:04.877Z,34.18
2019-02-02T14:43:40.271Z,33.18
2019-02-02T14:46:15.759Z,32.15
2019-02-02T14:48:58.055Z,32.75
2019-02-02T14:51:26.820Z,31.45
2019-02-02T14:53:55.531Z,30.95
2019-02-02T14:56:31.063Z,31.50
2019-02-02T14:59:06.380Z,29.15
2019-02-02T15:01:41.739Z,30.40
2019-02-02T15:04:10.541Z,29.50
2019-02-02T15:06:39.613Z,29.70
2019-02-02T15:09:15.357Z,28.83
2019-02-02T15:11:44.397Z,27.50
2019-02-02T15:14:13.667Z,27.75
2019-02-02T15:16:50.473Z,28.05
2019-02-02T15:19:19.260Z,27.40
2019-02-02T15:22:08.070Z,27.53
2019-02-02T15:24:44.130Z,26.55
2019-02-02T15:27:19.370Z,28.45
2019-02-02T15:37:08.045Z,27.40
2019-02-02T15:39:36.981Z,27.27
2019-02-02T15:42:06.288Z,27.13
2019-02-02T15:44:42.203Z,26.77
2019-02-02T15:47:17.877Z,26.73
2019-02-02T15:50:00.028Z,26.55
2019-02-02T15:52:28.739Z,26.50
2019-02-02T15:54:57.725Z,25.88
2019-02-02T15:57:33.314Z,25.23
2019-02-02T16:00:18.048Z,26.52
2019-02-02T16:02:53.729Z,27.50
2019-02-02T16:05:22.700Z,25.82
2019-02-02T16:07:51.526Z,26.73
2019-02-02T16:10:29.330Z,26.57
2019-02-02T16:12:58.387Z,25.92
2019-02-02T16:15:27.425Z,27.62
2019-02-02T16:18:03.727Z,27.15
2019-02-02T16:20:34.945Z,27.87
2019-02-02T16:23:05.293Z,27.50
2019-02-02T16:42:45.876Z,29.85
2019-02-02T16:45:16.746Z,30.08
2019-02-02T16:47:58.402Z,30.43
2019-02-02T16:50:33.711Z,29.85
2019-02-02T16:53:09.379Z,29.72
2019-02-02T16:55:38.240Z,31.97
2019-02-02T16:58:07.054Z,29.23
2019-02-02T17:00:48.579Z,30.27
2019-02-02T17:03:17.644Z,28.55
2019-02-02T17:05:46.474Z,29.23
2019-02-02T17:08:22.644Z,28.80
2019-02-02T17:10:51.656Z,28.52
2019-02-02T17:13:20.910Z,29.05
2019-02-02T17:15:56.559Z,29.60
2019-02-02T17:18:25.473Z,28.38
2019-02-02T17:20:54.625Z,28.23
2019-02-02T17:23:29.669Z,29.63
2019-02-02T17:25:58.742Z,27.40
2019-02-02T17:28:28.689Z,29.25
2019-02-02T17:31:04.440Z,29.30
2019-02-02T17:33:33.253Z,28.35
2019-02-02T17:36:02.100Z,29.23
2019-02-02T17:38:37.859Z,27.07
2019-02-02T17:41:06.907Z,28.98
2019-02-02T17:43:35.960Z,27.98
2019-02-02T17:46:12.756Z,28.80
2019-02-02T17:48:47.960Z,28.05
2019-02-02T17:51:30.623Z,28.57
2019-02-02T17:53:59.396Z,28.12
2019-02-02T17:56:28.278Z,28.57
2019-02-02T17:59:03.748Z,27.02
2019-02-02T18:01:39.415Z,28.60
2019-02-02T18:04:15.042Z,28.57
2019-02-02T18:06:43.780Z,28.67
2019-02-02T18:09:12.971Z,27.70
2019-02-02T18:11:48.563Z,27.95
2019-02-02T18:14:17.856Z,28.75
2019-02-02T18:16:46.644Z,28.45
2019-02-02T18:19:21.892Z,28.73
2019-02-02T18:21:50.934Z,28.20
2019-02-02T18:24:20.237Z,27.80
2019-02-02T18:26:56.291Z,28.10
2019-02-02T18:29:25.123Z,28.10
2019-02-02T18:31:53.920Z,26.97
2019-02-02T18:34:31.930Z,27.55
2019-02-02T18:37:01.229Z,28.42
2019-02-02T18:43:32.196Z,26.50
2019-02-02T18:46:00.943Z,27.32
2019-02-02T18:48:29.966Z,27.02
2019-02-02T18:51:06.400Z,27.30
2019-02-02T18:53:41.945Z,27.30
2019-02-02T18:56:19.087Z,26.35
2019-02-02T18:58:47.883Z,27.82
2019-02-02T19:01:16.950Z,28.23
2019-02-02T19:03:59.421Z,26.60
2019-02-02T19:06:28.481Z,27.02
2019-02-02T19:08:58.098Z,27.55
2019-02-02T19:11:34.069Z,27.05
2019-02-02T19:14:03.099Z,27.42
2019-02-02T19:16:31.866Z,27.67
2019-02-02T19:19:07.252Z,26.93
2019-02-02T19:21:36.340Z,27.00
2019-02-02T19:24:05.526Z,26.05
2019-02-02T19:26:41.445Z,26.75
2019-02-02T19:29:10.290Z,26.27
2019-02-02T19:31:39.054Z,26.43
2019-02-02T19:34:14.698Z,26.33
2019-02-02T19:36:43.510Z,26.37
2019-02-02T19:39:12.318Z,25.50
2019-02-02T19:41:47.263Z,26.90
2019-02-02T19:44:16.369Z,26.23
2019-02-02T19:46:45.201Z,27.22
2019-02-02T19:49:21.148Z,26.20
2019-02-02T19:51:56.405Z,27.35
2019-02-02T19:54:38.578Z,27.32
2019-02-02T19:57:07.397Z,27.07
2019-02-02T19:59:36.181Z,27.67
2019-02-02T20:02:12.067Z,26.93
2019-02-02T20:04:47.152Z,26.62
2019-02-02T20:07:23.004Z,26.52
2019-02-02T20:09:51.823Z,26.97
2019-02-02T20:12:20.591Z,27.32
2019-02-02T20:14:57.166Z,27.27
2019-02-02T20:17:25.890Z,27.42
2019-02-02T20:19:54.655Z,27.25
2019-02-02T20:22:30.483Z,27.77
2019-02-02T20:24:59.253Z,27.53
2019-02-02T20:27:28.013Z,27.17
2019-02-02T20:30:03.439Z,27.20
2019-02-02T20:32:32.507Z,26.73
2019-02-02T20:35:01.577Z,27.27
2019-02-02T20:37:37.315Z,26.40
2019-02-02T20:40:07.766Z,27.58
2019-02-02T20:42:36.834Z,28.27
2019-02-02T20:45:13.859Z,27.77
2019-02-02T20:47:43.431Z,27.67
2019-02-02T20:50:27.259Z,26.95
2019-02-02T20:53:03.368Z,26.17
2019-02-02T20:55:47.942Z,26.77
2019-02-02T20:58:16.749Z,28.40
2019-02-02T21:00:45.567Z,28.52
2019-02-02T21:03:20.659Z,28.95
2019-02-02T21:05:56.522Z,28.17
2019-02-02T21:08:31.714Z,29.02
2019-02-02T21:11:00.982Z,28.32
2019-02-02T21:13:29.719Z,28.03
2019-02-02T21:16:05.436Z,28.15
2019-02-02T21:18:35.083Z,27.37
2019-02-02T21:21:06.278Z,28.52
2019-02-02T21:23:41.798Z,26.90
2019-02-02T21:26:11.107Z,28.50
2019-02-02T21:28:50.113Z,26.85
2019-02-02T21:31:17.124Z,27.35
2019-02-02T21:33:45.854Z,27.77
2019-02-02T21:36:14.585Z,27.00
2019-02-02T21:38:49.941Z,26.90
2019-02-02T21:41:18.731Z,26.05
2019-02-02T21:43:47.766Z,25.80
2019-02-02T21:46:23.768Z,25.20
2019-02-02T21:48:58.813Z,26.27
2019-02-02T21:51:41.122Z,25.15
2019-02-02T21:54:17.399Z,25.10
2019-02-02T21:56:52.698Z,25.68
2019-02-02T21:59:21.461Z,25.35
2019-02-02T22:01:50.593Z,24.13
2019-02-02T22:04:25.895Z,23.25
2019-02-02T22:07:01.817Z,21.80
2019-02-02T22:09:37.225Z,22.00
2019-02-02T22:12:06.399Z,21.82
2019-02-02T22:14:35.371Z,21.12
2019-02-02T22:17:10.663Z,20.95
2019-02-02T22:19:39.417Z,19.82
2019-02-02T22:22:08.220Z,20.32
2019-02-02T22:24:44.192Z,19.12
2019-02-02T22:27:12.905Z,19.30
2019-02-02T22:29:41.633Z,18.52
2019-02-02T22:32:17.438Z,17.82
2019-02-02T22:34:46.120Z,17.65
2019-02-02T22:37:14.877Z,17.27
2019-02-02T22:39:50.661Z,17.05
2019-02-02T22:42:19.454Z,16.23
2019-02-02T22:44:48.592Z,17.50
2019-02-02T22:47:24.381Z,16.42
2019-02-02T22:49:53.116Z,16.65
2019-02-02T22:52:35.797Z,17.05
2019-02-02T22:55:12.882Z,17.57
2019-02-02T22:57:47.901Z,16.23
2019-02-02T23:01:01.323Z,16.00
2019-02-02T23:04:06.648Z,16.50
2019-02-02T23:06:44.214Z,15.75
2019-02-02T23:10:08.176Z,15.93
2019-02-02T23:12:59.461Z,16.10
2019-02-02T23:16:16.714Z,15.85
2019-02-02T23:18:46.882Z,15.53
2019-02-02T23:21:15.846Z,14.68
2019-02-02T23:30:56.300Z,13.68
2019-02-02T23:33:25.550Z,14.45
2019-02-02T23:35:54.890Z,13.83
2019-02-02T23:38:30.739Z,14.00
2019-02-02T23:40:59.673Z,13.55
2019-02-02T23:43:29.184Z,13.23
2019-02-02T23:46:05.023Z,13.22
2019-02-02T23:48:33.921Z,13.38
2019-02-02T23:51:02.791Z,12.15
2019-02-02T23:53:38.233Z,12.07
2019-02-02T23:56:13.859Z,12.43
2019-02-02T23:58:49.437Z,12.90
